createdAt,value
2024-02-17T00:02:00.399Z,33.05
2024-02-17T00:05:04.238Z,33.03
2024-02-17T00:08:10.493Z,31.10
2024-02-17T00:11:16.762Z,33.03
2024-02-17T00:14:19.547Z,34.70
2024-02-17T00:17:25.287Z,38.67
2024-02-17T00:20:27.880Z,36.22
2024-02-17T00:23:32.681Z,42.03
2024-02-17T00:26:41.374Z,33.95
2024-02-17T00:29:44.203Z,36.23
2024-02-17T00:32:54.185Z,35.65
2024-02-17T00:35:58.774Z,37.47
2024-02-17T00:39:01.710Z,36.75
2024-02-17T00:42:04.511Z,43.38
2024-02-17T00:45:07.718Z,35.37
2024-02-17T00:48:10.356Z,37.55
2024-02-17T00:51:16.047Z,39.55
2024-02-17T00:54:18.912Z,37.55
2024-02-17T00:57:21.590Z,38.47
2024-02-17T01:00:24.858Z,39.50
2024-02-17T01:03:27.606Z,38.13
2024-02-17T01:06:30.686Z,37.22
2024-02-17T01:09:33.362Z,36.13
2024-02-17T01:12:36.851Z,38.20
2024-02-17T01:15:39.632Z,37.27
2024-02-17T01:18:42.732Z,37.47
2024-02-17T01:21:45.384Z,40.15
2024-02-17T01:24:48.414Z,39.92
2024-02-17T01:27:51.201Z,33.90
2024-02-17T01:30:53.904Z,37.03
2024-02-17T01:33:57.124Z,38.72
2024-02-17T01:36:59.565Z,34.70
2024-02-17T01:40:08.472Z,39.20
2024-02-17T01:43:15.143Z,38.20
2024-02-17T01:46:19.022Z,35.83
2024-02-17T01:49:25.015Z,37.17
2024-02-17T01:52:31.390Z,41.25
2024-02-17T01:55:35.388Z,39.60
2024-02-17T01:58:38.419Z,42.05
2024-02-17T02:01:45.092Z,40.20
2024-02-17T02:04:48.728Z,39.22
2024-02-17T02:07:51.279Z,40.28
2024-02-17T02:10:56.372Z,38.15
2024-02-17T02:14:14.726Z,39.13
2024-02-17T02:17:19.636Z,36.37
2024-02-17T02:20:22.959Z,38.28
2024-02-17T02:23:25.710Z,37.80
2024-02-17T02:26:28.096Z,38.55
2024-02-17T02:29:30.700Z,39.47
2024-02-17T02:32:33.060Z,41.73
2024-02-17T02:35:35.431Z,36.92
2024-02-17T02:38:39.111Z,39.45
2024-02-17T02:41:42.098Z,41.00
2024-02-17T02:44:45.154Z,41.83
2024-02-17T02:47:48.886Z,38.70
2024-02-17T02:50:52.132Z,39.92
2024-02-17T02:54:04.458Z,40.55
2024-02-17T02:57:07.644Z,41.72
2024-02-17T03:00:11.118Z,38.15
2024-02-17T03:03:14.849Z,39.53
2024-02-17T03:06:17.527Z,38.33
2024-02-17T03:09:20.788Z,43.53
2024-02-17T03:12:24.416Z,42.05
2024-02-17T03:15:28.006Z,37.72
2024-02-17T03:18:31.085Z,43.47
2024-02-17T03:21:37.649Z,39.90
2024-02-17T03:24:41.355Z,39.30
2024-02-17T03:27:43.890Z,42.78
2024-02-17T03:30:47.918Z,38.95
2024-02-17T03:33:52.074Z,37.17
2024-02-17T03:36:55.610Z,43.38
2024-02-17T03:39:58.209Z,39.20
2024-02-17T03:43:00.679Z,41.47
2024-02-17T03:46:03.020Z,37.58
2024-02-17T03:49:05.555Z,40.33
2024-02-17T03:52:09.169Z,35.13
2024-02-17T03:55:12.337Z,38.90
2024-02-17T03:58:15.432Z,41.50
2024-02-17T04:01:18.978Z,38.13
2024-02-17T04:05:00.960Z,42.97
2024-02-17T04:08:33.631Z,40.63
2024-02-17T04:11:40.096Z,36.95
2024-02-17T04:14:44.916Z,38.60
2024-02-17T04:17:47.551Z,39.97
2024-02-17T04:20:50.435Z,40.13
2024-02-17T04:23:52.899Z,38.42
2024-02-17T04:26:57.406Z,39.55
2024-02-17T04:30:04.104Z,40.25
2024-02-17T04:33:07.525Z,40.03
2024-02-17T04:36:13.018Z,40.13
2024-02-17T04:39:16.367Z,40.03
2024-02-17T04:42:19.296Z,38.85
2024-02-17T04:45:22.642Z,36.60
2024-02-17T04:48:26.166Z,38.72
2024-02-17T04:51:28.968Z,37.97
2024-02-17T04:54:32.276Z,37.55
2024-02-17T04:57:35.036Z,38.72
2024-02-17T05:00:37.982Z,37.13
2024-02-17T05:03:41.261Z,34.53
2024-02-17T05:06:48.753Z,36.70
2024-02-17T05:09:51.501Z,36.67
2024-02-17T05:12:54.111Z,37.75
2024-02-17T05:15:58.051Z,36.10
2024-02-17T05:19:00.979Z,38.78
2024-02-17T05:22:04.998Z,37.60
2024-02-17T05:25:07.470Z,39.05
2024-02-17T05:28:10.124Z,37.88
2024-02-17T05:31:29.827Z,35.90
2024-02-17T05:34:32.457Z,37.03
2024-02-17T05:37:35.003Z,38.30
2024-02-17T05:40:38.900Z,37.83
2024-02-17T05:43:41.469Z,37.55
2024-02-17T05:46:44.345Z,42.28
2024-02-17T05:49:47.465Z,40.85
2024-02-17T05:52:51.022Z,39.53
2024-02-17T05:55:53.362Z,36.50
2024-02-17T05:58:58.067Z,33.75
2024-02-17T06:02:00.459Z,37.45
2024-02-17T06:05:04.234Z,39.30
2024-02-17T06:08:07.311Z,40.00
2024-02-17T06:11:09.666Z,37.97
2024-02-17T06:14:11.998Z,39.45
2024-02-17T06:17:23.934Z,37.80
2024-02-17T06:20:45.173Z,37.20
2024-02-17T06:23:49.225Z,39.00
2024-02-17T06:26:52.068Z,39.10
2024-02-17T06:29:54.799Z,50.97
2024-02-17T06:33:02.265Z,38.67
2024-02-17T06:36:13.891Z,35.03
2024-02-17T06:39:27.604Z,39.50
2024-02-17T06:42:30.246Z,41.88
2024-02-17T06:45:39.698Z,42.40
2024-02-17T06:48:45.199Z,40.92
2024-02-17T06:51:51.141Z,43.30
2024-02-17T06:55:18.560Z,37.93
2024-02-17T07:02:28.092Z,38.88
2024-02-17T07:05:38.637Z,45.25
2024-02-17T07:08:55.188Z,41.25
2024-02-17T07:12:08.725Z,42.20
2024-02-17T07:15:27.291Z,39.00
2024-02-17T07:18:30.838Z,38.13
2024-02-17T07:21:40.817Z,38.72
2024-02-17T07:24:49.733Z,39.88
2024-02-17T07:27:59.426Z,39.47
2024-02-17T07:31:02.267Z,40.97
2024-02-17T07:34:05.096Z,39.72
2024-02-17T07:37:07.876Z,41.42
2024-02-17T07:40:15.760Z,40.58
2024-02-17T07:43:24.175Z,40.27
2024-02-17T07:46:37.373Z,41.42
2024-02-17T07:49:45.100Z,41.17
2024-02-17T07:52:47.697Z,42.92
2024-02-17T07:55:54.382Z,41.17
2024-02-17T07:59:07.456Z,40.60
2024-02-17T08:02:11.169Z,39.80
2024-02-17T08:05:25.403Z,40.20
2024-02-17T08:08:31.853Z,39.63
2024-02-17T08:11:36.847Z,36.50
2024-02-17T08:14:57.522Z,42.30
2024-02-17T08:18:03.211Z,40.53
2024-02-17T08:21:06.244Z,42.30
2024-02-17T08:24:11.581Z,38.40
2024-02-17T08:27:17.727Z,36.78
2024-02-17T08:30:20.756Z,35.07
2024-02-17T08:33:23.267Z,39.92
2024-02-17T08:36:25.736Z,36.22
2024-02-17T08:39:29.664Z,38.38
2024-02-17T08:42:32.213Z,37.55
2024-02-17T08:45:40.604Z,35.40
2024-02-17T08:48:43.255Z,34.15
2024-02-17T08:51:45.761Z,38.33
2024-02-17T08:54:48.200Z,39.83
2024-02-17T08:57:50.502Z,35.05
2024-02-17T09:00:54.331Z,32.40
2024-02-17T09:03:57.089Z,31.92
2024-02-17T09:07:01.089Z,33.10
2024-02-17T09:10:04.796Z,33.17
2024-02-17T09:13:08.957Z,27.77
2024-02-17T09:16:11.414Z,28.37
2024-02-17T09:19:14.128Z,28.45
2024-02-17T09:22:18.279Z,29.83
2024-02-17T09:25:21.347Z,32.42
2024-02-17T09:28:24.166Z,32.10
2024-02-17T09:31:26.584Z,34.03
2024-02-17T09:34:31.179Z,37.45
2024-02-17T09:37:33.763Z,32.17
2024-02-17T09:40:36.481Z,36.80
2024-02-17T09:43:39.438Z,35.20
2024-02-17T09:46:42.104Z,34.87
2024-02-17T09:49:44.988Z,28.38
2024-02-17T09:52:51.755Z,29.90
2024-02-17T09:55:54.277Z,32.75
2024-02-17T09:58:57.256Z,29.88
2024-02-17T10:02:00.009Z,33.63
2024-02-17T10:05:04.042Z,29.63
2024-02-17T10:08:08.109Z,27.75
2024-02-17T10:11:13.373Z,31.17
2024-02-17T10:14:17.858Z,30.58
2024-02-17T10:17:24.134Z,31.27
2024-02-17T10:20:26.823Z,25.60
2024-02-17T10:23:29.130Z,29.58
2024-02-17T10:26:31.558Z,30.90
2024-02-17T10:29:33.929Z,29.73
2024-02-17T10:32:37.123Z,27.03
2024-02-17T10:35:44.353Z,28.52
2024-02-17T10:38:47.552Z,31.35
2024-02-17T10:41:50.112Z,26.98
2024-02-17T10:44:52.514Z,27.83
2024-02-17T10:48:06.900Z,25.33
2024-02-17T10:51:10.139Z,27.90
2024-02-17T10:54:17.950Z,22.20
2024-02-17T10:57:24.020Z,23.92
2024-02-17T11:00:27.049Z,21.42
2024-02-17T11:03:37.960Z,17.10
2024-02-17T11:06:44.407Z,19.05
2024-02-17T11:09:47.403Z,22.73
2024-02-17T11:12:51.508Z,20.30
2024-02-17T11:16:06.261Z,21.95
2024-02-17T11:19:13.080Z,18.67
2024-02-17T11:22:18.649Z,26.90
2024-02-17T11:25:35.865Z,21.92
2024-02-17T11:28:38.772Z,20.58
2024-02-17T11:31:43.226Z,20.48
2024-02-17T11:34:47.931Z,22.47
2024-02-17T11:37:55.156Z,23.27
2024-02-17T11:40:59.567Z,21.73
2024-02-17T11:44:02.432Z,25.98
2024-02-17T11:47:05.003Z,21.45
2024-02-17T11:50:12.729Z,24.67
2024-02-17T11:53:16.179Z,22.63
2024-02-17T11:56:19.136Z,22.15
2024-02-17T11:59:22.411Z,25.05
2024-02-17T12:02:25.392Z,26.63
2024-02-17T12:05:28.052Z,25.00
2024-02-17T12:08:32.189Z,23.98
2024-02-17T12:11:36.577Z,23.52
2024-02-17T12:14:39.123Z,28.67
2024-02-17T12:17:46.123Z,28.85
2024-02-17T12:20:51.782Z,23.53
2024-02-17T12:23:59.004Z,25.45
2024-02-17T12:27:02.026Z,24.23
2024-02-17T12:30:08.113Z,22.90
2024-02-17T12:33:11.896Z,24.55
2024-02-17T12:36:23.847Z,23.07
2024-02-17T12:39:27.650Z,21.13
2024-02-17T12:42:30.898Z,24.30
2024-02-17T12:45:34.225Z,26.15
2024-02-17T12:48:40.438Z,23.55
2024-02-17T12:51:48.945Z,22.57
2024-02-17T12:54:51.914Z,23.08
2024-02-17T12:57:55.196Z,24.00
2024-02-17T13:01:00.405Z,26.02
2024-02-17T13:04:03.196Z,28.38
2024-02-17T13:07:06.085Z,22.50
2024-02-17T13:10:10.443Z,25.85
2024-02-17T13:13:12.888Z,24.80
2024-02-17T13:16:16.617Z,25.33
2024-02-17T13:19:20.033Z,26.23
2024-02-17T13:22:24.796Z,25.73
2024-02-17T13:25:27.320Z,26.33
2024-02-17T13:28:31.315Z,27.40
2024-02-17T13:31:35.310Z,18.85
2024-02-17T13:34:40.424Z,18.67
2024-02-17T13:37:46.669Z,20.90
2024-02-17T13:40:56.957Z,22.02
2024-02-17T13:44:09.960Z,20.95
2024-02-17T13:47:15.650Z,18.42
2024-02-17T13:50:18.171Z,19.83
2024-02-17T13:53:21.134Z,18.30
2024-02-17T13:56:28.220Z,18.42
2024-02-17T13:59:38.958Z,24.05
2024-02-17T14:02:43.916Z,20.63
2024-02-17T14:05:47.062Z,19.60
2024-02-17T14:08:59.841Z,20.67
2024-02-17T14:12:05.575Z,22.05
2024-02-17T14:15:09.669Z,24.45
2024-02-17T14:18:16.115Z,20.35
2024-02-17T14:21:21.060Z,23.35
2024-02-17T14:24:24.110Z,22.57
2024-02-17T14:27:29.305Z,22.88
2024-02-17T14:30:38.361Z,22.85
2024-02-17T14:33:49.742Z,21.33
2024-02-17T14:36:53.038Z,23.83
2024-02-17T14:39:59.604Z,25.50
2024-02-17T14:43:02.602Z,21.70
2024-02-17T14:46:05.566Z,25.17
2024-02-17T14:49:08.814Z,21.80
2024-02-17T14:52:11.847Z,23.48
2024-02-17T14:55:14.737Z,21.23
2024-02-17T14:58:17.374Z,21.65
2024-02-17T15:01:20.154Z,21.75
2024-02-17T15:04:22.923Z,23.25
2024-02-17T15:07:25.552Z,23.90
2024-02-17T15:10:31.728Z,19.50
2024-02-17T15:13:35.417Z,22.45
2024-02-17T15:16:39.714Z,23.30
2024-02-17T15:19:43.290Z,22.08
2024-02-17T15:22:47.180Z,22.20
2024-02-17T15:25:49.860Z,20.53
2024-02-17T15:28:52.921Z,22.13
2024-02-17T15:31:56.199Z,23.13
2024-02-17T15:34:59.627Z,24.40
2024-02-17T15:38:07.592Z,24.40
2024-02-17T15:41:11.268Z,24.47
2024-02-17T15:44:14.257Z,24.27
2024-02-17T15:47:16.597Z,23.08
2024-02-17T15:50:19.059Z,24.45
2024-02-17T15:53:29.007Z,24.70
2024-02-17T15:56:31.570Z,24.03
2024-02-17T15:59:34.424Z,25.52
2024-02-17T16:02:37.956Z,22.42
2024-02-17T16:05:40.744Z,23.40
2024-02-17T16:08:43.138Z,24.65
2024-02-17T16:11:47.558Z,23.93
2024-02-17T16:14:50.022Z,22.98
2024-02-17T16:17:54.612Z,24.92
2024-02-17T16:21:03.492Z,25.00
2024-02-17T16:24:09.045Z,21.73
2024-02-17T16:27:12.183Z,24.20
2024-02-17T16:30:14.782Z,22.92
2024-02-17T16:33:17.591Z,25.90
2024-02-17T16:36:20.172Z,22.05
2024-02-17T16:39:22.982Z,25.70
2024-02-17T16:42:26.863Z,23.23
2024-02-17T16:45:33.945Z,25.23
2024-02-17T16:48:37.972Z,21.33
2024-02-17T16:51:44.708Z,24.33
2024-02-17T16:54:48.370Z,29.73
2024-02-17T16:57:51.033Z,25.90
2024-02-17T17:00:53.644Z,24.30
2024-02-17T17:03:56.508Z,26.92
2024-02-17T17:07:09.074Z,24.02
2024-02-17T17:10:11.877Z,23.05
2024-02-17T17:13:17.500Z,24.30
2024-02-17T17:16:19.783Z,23.33
2024-02-17T17:19:23.013Z,20.95
2024-02-17T17:22:38.854Z,26.65
2024-02-17T17:25:46.339Z,24.23
2024-02-17T17:28:50.295Z,24.67
2024-02-17T17:31:53.463Z,26.33
2024-02-17T17:34:56.378Z,24.67
2024-02-17T17:38:08.330Z,27.35
2024-02-17T17:41:10.773Z,24.48
2024-02-17T17:44:17.541Z,26.30
2024-02-17T17:47:21.326Z,27.33
2024-02-17T17:50:25.332Z,24.85
2024-02-17T17:53:35.777Z,28.92
2024-02-17T17:56:44.476Z,24.15
2024-02-17T17:59:58.705Z,26.13
2024-02-17T18:03:03.717Z,27.13
2024-02-17T18:06:31.467Z,25.58
2024-02-17T18:09:51.359Z,24.30
2024-02-17T18:12:55.229Z,24.80
2024-02-17T18:16:02.279Z,22.97
2024-02-17T18:19:06.874Z,25.23
2024-02-17T18:22:12.116Z,21.08
2024-02-17T18:25:18.978Z,22.60
2024-02-17T18:28:21.786Z,25.42
2024-02-17T18:31:23.994Z,23.20
2024-02-17T18:34:30.644Z,21.10
2024-02-17T18:37:38.859Z,26.90
2024-02-17T18:40:44.195Z,25.05
2024-02-17T18:43:47.165Z,22.13
2024-02-17T18:46:59.083Z,22.90
2024-02-17T18:50:02.436Z,24.55
2024-02-17T18:53:05.751Z,25.45
2024-02-17T18:56:10.945Z,23.08
2024-02-17T18:59:19.318Z,25.15
2024-02-17T19:02:31.230Z,21.13
2024-02-17T19:05:44.196Z,22.55
2024-02-17T19:09:01.461Z,22.73
2024-02-17T19:12:04.680Z,22.70
2024-02-17T19:15:07.856Z,23.25
2024-02-17T19:18:10.668Z,24.97
2024-02-17T19:21:16.352Z,23.25
2024-02-17T19:24:19.165Z,21.08
2024-02-17T19:27:21.950Z,24.45
2024-02-17T19:30:25.462Z,23.67
2024-02-17T19:33:29.276Z,22.43
2024-02-17T19:36:31.760Z,23.13
2024-02-17T19:39:35.990Z,24.88
2024-02-17T19:42:38.325Z,22.17
2024-02-17T19:45:40.469Z,24.55
2024-02-17T19:48:42.898Z,24.30
2024-02-17T19:51:46.557Z,20.23
2024-02-17T19:54:50.546Z,23.08
2024-02-17T19:57:55.494Z,22.60
2024-02-17T20:00:58.644Z,20.75
2024-02-17T20:04:01.132Z,22.40
2024-02-17T20:07:03.724Z,23.30
2024-02-17T20:10:09.508Z,27.40
2024-02-17T20:13:12.107Z,22.70
2024-02-17T20:16:14.626Z,25.05
2024-02-17T20:19:18.100Z,23.30
2024-02-17T20:22:24.338Z,21.42
2024-02-17T20:25:31.715Z,22.92
2024-02-17T20:28:34.273Z,24.17
2024-02-17T20:31:36.919Z,25.13
2024-02-17T20:34:39.585Z,24.13
2024-02-17T20:37:42.092Z,25.27
2024-02-17T20:40:44.502Z,22.52
2024-02-17T20:43:47.199Z,22.98
2024-02-17T20:46:50.572Z,23.52
2024-02-17T20:49:54.379Z,19.53
2024-02-17T20:52:59.493Z,22.60
2024-02-17T20:56:09.738Z,24.80
2024-02-17T20:59:22.019Z,21.17
2024-02-17T21:06:10.365Z,21.40
2024-02-17T21:09:13.291Z,20.25
2024-02-17T21:12:15.805Z,24.52
2024-02-17T21:15:21.733Z,22.75
2024-02-17T21:18:24.956Z,19.48
2024-02-17T21:21:30.659Z,21.67
2024-02-17T21:24:36.102Z,20.02
2024-02-17T21:27:38.691Z,20.20
2024-02-17T21:30:42.633Z,21.30
2024-02-17T21:33:45.966Z,22.45
2024-02-17T21:37:24.593Z,19.93
2024-02-17T21:40:45.184Z,23.02
2024-02-17T21:43:54.896Z,23.13
2024-02-17T21:46:57.754Z,23.20
2024-02-17T21:50:08.019Z,23.95
2024-02-17T21:53:13.629Z,23.67
2024-02-17T22:03:55.011Z,23.00
2024-02-17T22:07:10.655Z,22.70
2024-02-17T22:10:13.792Z,24.10
2024-02-17T22:13:24.040Z,22.70
2024-02-17T22:16:35.794Z,19.83
2024-02-17T22:19:43.520Z,21.33
2024-02-17T22:22:48.106Z,22.67
2024-02-17T22:25:54.693Z,23.17
2024-02-17T22:29:00.704Z,20.50
2024-02-17T22:32:05.764Z,24.90
2024-02-17T22:35:10.170Z,19.88
2024-02-17T22:38:20.159Z,21.20
2024-02-17T22:41:23.346Z,19.97
2024-02-17T22:44:27.182Z,21.55
2024-02-17T22:47:40.668Z,20.40
2024-02-17T22:50:43.714Z,19.13
2024-02-17T22:54:10.471Z,18.85
2024-02-17T22:57:29.332Z,16.70
2024-02-17T23:00:32.954Z,18.38
2024-02-17T23:03:35.513Z,18.35
2024-02-17T23:06:54.225Z,17.80
2024-02-17T23:09:58.830Z,18.33
2024-02-17T23:13:02.336Z,19.17
2024-02-17T23:16:13.120Z,18.75
2024-02-17T23:19:22.873Z,19.48
2024-02-17T23:22:31.929Z,19.15
2024-02-17T23:25:39.507Z,17.02
2024-02-17T23:28:42.579Z,17.27
2024-02-17T23:31:45.861Z,17.98
2024-02-17T23:34:49.301Z,17.70
2024-02-17T23:37:52.507Z,19.67
2024-02-17T23:41:01.834Z,23.55
2024-02-17T23:44:05.961Z,20.37
2024-02-17T23:47:09.949Z,20.67
2024-02-17T23:50:14.943Z,21.55
2024-02-17T23:53:20.985Z,22.23
2024-02-17T23:56:26.930Z,21.58
2024-02-17T23:59:31.842Z,22.27
